Wetterdaten: Woche 13.05.19 - 19.05.19 (KW20)
Datum Zeit Temp. 2m rel. Feuchte Luftdruck Regen Wind Richtung Sonne ET UV-Index Solar Taupunkt Ben
13.05.2019 00:00 9,8 C 61 % 1037,1 hPa 0,0 mm 0,1 km/h (0 Bft) N 0,00 h 0,0 mm 0,0 UV-I 0 W/m 2,7 C 2,0 km/h (1 Bft)
13.05.2019 01:00 8,8 C 64 % 1037,6 hPa 0,0 mm 0,2 km/h (0 Bft) N 0,00 h 0,0 mm 0,0 UV-I 0 W/m 2,3 C 2,6 km/h (1 Bft)
13.05.2019 02:00 7,7 C 68 % 1037,8 hPa 0,0 mm 0,1 km/h (0 Bft) N 0,00 h 0,0 mm 0,0 UV-I 0 W/m 2,3 C 1,1 km/h (1 Bft)
13.05.2019 03:00 6,5 C 75 % 1037,8 hPa 0,0 mm 0,0 km/h (0 Bft) N 0,00 h 0,0 mm 0,0 UV-I 0 W/m 2,5 C 0,0 km/h (0 Bft)
13.05.2019 04:00 5,0 C 82 % 1038,0 hPa 0,0 mm 0,0 km/h (0 Bft) N 0,00 h 0,0 mm 0,0 UV-I 0 W/m 2,2 C 0,0 km/h (0 Bft)
13.05.2019 05:00 4,1 C 85 % 1038,3 hPa 0,0 mm 0,0 km/h (0 Bft) N 0,00 h 0,0 mm 0,0 UV-I 6 W/m 1,8 C 0,0 km/h (0 Bft)
13.05.2019 06:00 4,1 C 87 % 1038,8 hPa 0,0 mm 0,0 km/h (0 Bft) N 0,17 h 0,0 mm 0,0 UV-I 46 W/m 2,1 C 0,0 km/h (0 Bft)
13.05.2019 07:00 4,9 C 86 % 1039,0 hPa 0,0 mm 0,0 km/h (0 Bft) N 1,00 h 0,0 mm 0,1 UV-I 189 W/m 2,8 C 0,0 km/h (0 Bft)
13.05.2019 08:00 6,5 C 81 % 1039,1 hPa 0,0 mm 0,0 km/h (0 Bft) N 1,00 h 0,0 mm 0,7 UV-I 413 W/m 3,4 C 0,4 km/h (0 Bft)
13.05.2019 09:00 8,3 C 70 % 1039,2 hPa 0,0 mm 0,4 km/h (0 Bft) O 1,00 h 0,1 mm 1,4 UV-I 568 W/m 3,1 C 2,8 km/h (1 Bft)
13.05.2019 10:00 10,1 C 58 % 1039,1 hPa 0,0 mm 0,7 km/h (0 Bft) O 1,00 h 0,2 mm 3,2 UV-I 847 W/m 2,3 C 3,9 km/h (1 Bft)
13.05.2019 11:00 12,1 C 46 % 1039,0 hPa 0,0 mm 0,4 km/h (0 Bft) O 1,00 h 0,3 mm 3,8 UV-I 938 W/m 0,8 C 3,5 km/h (1 Bft)
13.05.2019 12:00 13,5 C 39 % 1038,8 hPa 0,0 mm 1,0 km/h (0 Bft) O 1,00 h 0,4 mm 3,5 UV-I 1045 W/m -0,3 C 4,6 km/h (1 Bft)
13.05.2019 13:00 14,6 C 35 % 1038,2 hPa 0,0 mm 1,2 km/h (1 Bft) O 1,00 h 0,4 mm 3,6 UV-I 1078 W/m -0,9 C 5,5 km/h (1 Bft)
13.05.2019 14:00 15,6 C 33 % 1037,7 hPa 0,0 mm 1,1 km/h (1 Bft) O 1,00 h 0,5 mm 3,4 UV-I 1032 W/m -0,8 C 4,8 km/h (1 Bft)
13.05.2019 15:00 16,0 C 29 % 1037,2 hPa 0,0 mm 1,4 km/h (1 Bft) O 1,00 h 0,5 mm 2,8 UV-I 939 W/m -2,0 C 4,8 km/h (1 Bft)
13.05.2019 16:00 16,5 C 29 % 1036,7 hPa 0,0 mm 1,0 km/h (0 Bft) S 1,00 h 0,4 mm 1,9 UV-I 791 W/m -1,9 C 5,0 km/h (1 Bft)
13.05.2019 17:00 16,6 C 27 % 1036,2 hPa 0,0 mm 1,1 km/h (0 Bft) O 1,00 h 0,4 mm 1,0 UV-I 610 W/m -2,5 C 4,8 km/h (1 Bft)
13.05.2019 18:00 16,4 C 27 % 1035,8 hPa 0,0 mm 1,0 km/h (0 Bft) SO 1,00 h 0,3 mm 0,5 UV-I 409 W/m -2,8 C 4,4 km/h (1 Bft)
13.05.2019 19:00 16,1 C 28 % 1035,6 hPa 0,0 mm 0,7 km/h (0 Bft) S-SO 1,00 h 0,2 mm 0,0 UV-I 212 W/m -2,6 C 3,3 km/h (1 Bft)
13.05.2019 20:00 14,9 C 30 % 1035,4 hPa 0,0 mm 0,1 km/h (0 Bft) N 0,33 h 0,1 mm 0,0 UV-I 42 W/m -2,3 C 1,7 km/h (1 Bft)
13.05.2019 21:00 12,7 C 44 % 1035,5 hPa 0,0 mm 0,0 km/h (0 Bft) N 0,08 h 0,0 mm 0,0 UV-I 5 W/m 0,7 C 0,0 km/h (0 Bft)
13.05.2019 22:00 10,4 C 53 % 1035,5 hPa 0,0 mm 0,0 km/h (0 Bft) N 0,00 h 0,0 mm 0,0 UV-I 0 W/m 1,2 C 0,0 km/h (0 Bft)
13.05.2019 23:00 10,8 C 49 % 1035,7 hPa 0,0 mm 0,0 km/h (0 Bft) N 0,00 h 0,0 mm 0,0 UV-I 0 W/m 0,6 C 1,1 km/h (1 Bft)
14.05.2019 00:00 10,5 C 51 % 1035,6 hPa 0,0 mm 0,2 km/h (0 Bft) N 0,00 h 0,0 mm 0,0 UV-I 0 W/m 0,9 C 2,2 km/h (1 Bft)
14.05.2019 01:00 9,7 C 56 % 1035,5 hPa 0,0 mm 0,0 km/h (0 Bft) N 0,00 h 0,0 mm 0,0 UV-I 0 W/m 1,4 C 0,9 km/h (0 Bft)
14.05.2019 02:00 8,7 C 61 % 1035,2 hPa 0,0 mm 0,0 km/h (0 Bft) N 0,00 h 0,0 mm 0,0 UV-I 0 W/m 1,5 C 0,0 km/h (0 Bft)
14.05.2019 03:00 7,9 C 64 % 1035,2 hPa 0,0 mm 0,0 km/h (0 Bft) N 0,00 h 0,0 mm 0,0 UV-I 0 W/m 1,6 C 0,9 km/h (0 Bft)
14.05.2019 04:00 7,2 C 68 % 1034,9 hPa 0,0 mm 0,0 km/h (0 Bft) N 0,00 h 0,0 mm 0,0 UV-I 0 W/m 1,7 C 0,2 km/h (0 Bft)
14.05.2019 05:00 6,2 C 74 % 1035,0 hPa 0,0 mm 0,0 km/h (0 Bft) N 0,00 h 0,0 mm 0,0 UV-I 5 W/m 1,8 C 0,0 km/h (0 Bft)
14.05.2019 06:00 5,0 C 81 % 1035,1 hPa 0,0 mm 0,0 km/h (0 Bft) N 0,00 h 0,0 mm 0,0 UV-I 35 W/m 2,0 C 0,0 km/h (0 Bft)
14.05.2019 07:00 5,7 C 82 % 1034,9 hPa 0,0 mm 0,0 km/h (0 Bft) N 0,75 h 0,0 mm 0,0 UV-I 168 W/m 2,9 C 0,0 km/h (0 Bft)
14.05.2019 08:00 7,2 C 78 % 1034,7 hPa 0,0 mm 0,0 km/h (0 Bft) N 1,00 h 0,0 mm 0,4 UV-I 412 W/m 3,6 C 0,9 km/h (0 Bft)
14.05.2019 09:00 8,8 C 73 % 1034,1 hPa 0,0 mm 0,2 km/h (0 Bft) O 1,00 h 0,0 mm 1,0 UV-I 646 W/m 4,3 C 2,9 km/h (1 Bft)
14.05.2019 10:00 10,6 C 66 % 1033,7 hPa 0,0 mm 0,8 km/h (0 Bft) O 1,00 h 0,2 mm 2,6 UV-I 815 W/m 4,6 C 4,1 km/h (1 Bft)
14.05.2019 11:00 12,4 C 56 % 1033,3 hPa 0,0 mm 0,8 km/h (0 Bft) O 0,92 h 0,3 mm 2,7 UV-I 839 W/m 3,7 C 5,0 km/h (1 Bft)
14.05.2019 12:00 13,6 C 46 % 1032,7 hPa 0,0 mm 0,6 km/h (0 Bft) O 0,75 h 0,3 mm 2,4 UV-I 772 W/m 2,1 C 4,2 km/h (1 Bft)
14.05.2019 13:00 14,9 C 42 % 1032,0 hPa 0,0 mm 0,9 km/h (0 Bft) S-SO 0,75 h 0,3 mm 2,8 UV-I 803 W/m 2,1 C 4,0 km/h (1 Bft)
14.05.2019 14:00 15,7 C 40 % 1031,1 hPa 0,0 mm 1,2 km/h (1 Bft) O 1,00 h 0,4 mm 2,9 UV-I 973 W/m 2,2 C 5,2 km/h (1 Bft)
14.05.2019 15:00 16,4 C 37 % 1030,4 hPa 0,0 mm 1,2 km/h (1 Bft) S-SO 1,00 h 0,4 mm 2,4 UV-I 891 W/m 1,8 C 5,5 km/h (1 Bft)
14.05.2019 16:00 16,7 C 35 % 1029,8 hPa 0,0 mm 1,1 km/h (1 Bft) SO 0,92 h 0,4 mm 1,5 UV-I 743 W/m 1,1 C 4,4 km/h (1 Bft)
14.05.2019 17:00 16,6 C 34 % 1029,2 hPa 0,0 mm 1,4 km/h (1 Bft) O-SO 1,00 h 0,3 mm 0,8 UV-I 591 W/m 0,8 C 5,3 km/h (1 Bft)
14.05.2019 18:00 16,3 C 34 % 1029,0 hPa 0,0 mm 1,3 km/h (1 Bft) O 1,00 h 0,3 mm 0,3 UV-I 396 W/m 0,4 C 5,9 km/h (2 Bft)
14.05.2019 19:00 15,5 C 35 % 1029,0 hPa 0,0 mm 0,8 km/h (0 Bft) O-SO 0,92 h 0,2 mm 0,0 UV-I 190 W/m 0,3 C 4,2 km/h (1 Bft)
14.05.2019 20:00 14,5 C 39 % 1028,9 hPa 0,0 mm 0,3 km/h (0 Bft) N 0,25 h 0,1 mm 0,0 UV-I 44 W/m 0,6 C 2,4 km/h (1 Bft)
14.05.2019 21:00 13,1 C 44 % 1028,9 hPa 0,0 mm 0,0 km/h (0 Bft) N 0,08 h 0,0 mm 0,0 UV-I 9 W/m 1,0 C 0,6 km/h (0 Bft)
14.05.2019 22:00 11,9 C 48 % 1028,8 hPa 0,0 mm 0,0 km/h (0 Bft) N 0,00 h 0,0 mm 0,0 UV-I 0 W/m 1,2 C 0,0 km/h (0 Bft)
14.05.2019 23:00 10,8 C 54 % 1028,7 hPa 0,0 mm 0,0 km/h (0 Bft) N 0,00 h 0,0 mm 0,0 UV-I 0 W/m 1,8 C 0,0 km/h (0 Bft)
15.05.2019 00:00 8,5 C 66 % 1028,4 hPa 0,0 mm 0,0 km/h (0 Bft) N 0,00 h 0,0 mm 0,0 UV-I 0 W/m 2,6 C 0,0 km/h (0 Bft)
15.05.2019 01:00 7,0 C 73 % 1028,2 hPa 0,0 mm 0,0 km/h (0 Bft) N 0,00 h 0,0 mm 0,0 UV-I 0 W/m 2,4 C 0,0 km/h (0 Bft)
15.05.2019 02:00 6,0 C 79 % 1027,9 hPa 0,0 mm 0,0 km/h (0 Bft) N 0,00 h 0,0 mm 0,0 UV-I 0 W/m 2,6 C 0,0 km/h (0 Bft)
15.05.2019 03:00 5,3 C 82 % 1027,5 hPa 0,0 mm 0,0 km/h (0 Bft) N 0,00 h 0,0 mm 0,0 UV-I 0 W/m 2,4 C 0,0 km/h (0 Bft)
15.05.2019 04:00 4,7 C 83 % 1027,4 hPa 0,0 mm 0,0 km/h (0 Bft) N 0,00 h 0,0 mm 0,0 UV-I 0 W/m 2,1 C 0,0 km/h (0 Bft)
15.05.2019 05:00 4,0 C 85 % 1027,5 hPa 0,0 mm 0,0 km/h (0 Bft) N 0,00 h 0,0 mm 0,0 UV-I 5 W/m 1,7 C 0,0 km/h (0 Bft)
15.05.2019 06:00 3,7 C 88 % 1027,7 hPa 0,0 mm 0,1 km/h (0 Bft) N 0,50 h 0,0 mm 0,0 UV-I 60 W/m 1,8 C 0,6 km/h (0 Bft)
15.05.2019 07:00 4,9 C 86 % 1027,6 hPa 0,0 mm 0,0 km/h (0 Bft) N 1,00 h 0,0 mm 0,0 UV-I 244 W/m 2,7 C 0,0 km/h (0 Bft)
15.05.2019 08:00 7,7 C 70 % 1027,4 hPa 0,0 mm 0,2 km/h (0 Bft) S 1,00 h 0,0 mm 0,3 UV-I 492 W/m 2,5 C 1,6 km/h (1 Bft)
15.05.2019 09:00 10,7 C 50 % 1027,3 hPa 0,0 mm 0,6 km/h (0 Bft) O 1,00 h 0,0 mm 0,9 UV-I 668 W/m 0,4 C 3,9 km/h (1 Bft)
15.05.2019 10:00 12,3 C 38 % 1026,9 hPa 0,0 mm 1,2 km/h (1 Bft) S-SO 1,00 h 0,3 mm 2,8 UV-I 854 W/m -1,7 C 6,1 km/h (2 Bft)
15.05.2019 11:00 13,3 C 30 % 1026,3 hPa 0,0 mm 0,7 km/h (0 Bft) S-SO 1,00 h 0,4 mm 2,4 UV-I 990 W/m -3,9 C 4,1 km/h (1 Bft)
15.05.2019 12:00 14,4 C 27 % 1025,7 hPa 0,0 mm 1,1 km/h (0 Bft) S 1,00 h 0,4 mm 3,1 UV-I 1071 W/m -4,1 C 5,5 km/h (1 Bft)
15.05.2019 13:00 15,7 C 27 % 1024,9 hPa 0,0 mm 1,1 km/h (1 Bft) S 1,00 h 0,5 mm 3,1 UV-I 1089 W/m -3,2 C 4,8 km/h (1 Bft)
15.05.2019 14:00 16,4 C 30 % 1024,3 hPa 0,0 mm 1,2 km/h (1 Bft) O 1,00 h 0,5 mm 3,2 UV-I 1045 W/m -1,5 C 4,6 km/h (1 Bft)
15.05.2019 15:00 17,0 C 29 % 1023,9 hPa 0,0 mm 1,9 km/h (1 Bft) O-SO 1,00 h 0,5 mm 2,6 UV-I 947 W/m -1,3 C 6,3 km/h (2 Bft)
15.05.2019 16:00 17,2 C 28 % 1023,5 hPa 0,0 mm 2,0 km/h (1 Bft) SO 1,00 h 0,4 mm 1,7 UV-I 800 W/m -1,4 C 7,4 km/h (2 Bft)
15.05.2019 17:00 17,0 C 28 % 1023,1 hPa 0,0 mm 1,9 km/h (1 Bft) O-SO 1,00 h 0,4 mm 0,9 UV-I 621 W/m -1,5 C 5,9 km/h (2 Bft)
15.05.2019 18:00 16,7 C 28 % 1022,7 hPa 0,0 mm 1,7 km/h (1 Bft) S-SO 1,00 h 0,3 mm 0,4 UV-I 428 W/m -1,7 C 4,8 km/h (1 Bft)
15.05.2019 19:00 16,2 C 29 % 1022,6 hPa 0,0 mm 1,3 km/h (1 Bft) O-SO 1,00 h 0,2 mm 0,0 UV-I 229 W/m -1,8 C 4,4 km/h (1 Bft)
15.05.2019 20:00 15,0 C 34 % 1022,6 hPa 0,0 mm 0,5 km/h (0 Bft) O 0,25 h 0,1 mm 0,0 UV-I 42 W/m -0,7 C 3,3 km/h (1 Bft)
15.05.2019 21:00 13,6 C 39 % 1022,6 hPa 0,0 mm 0,0 km/h (0 Bft) N 0,08 h 0,0 mm 0,0 UV-I 6 W/m -0,3 C 0,4 km/h (0 Bft)
15.05.2019 22:00 12,0 C 48 % 1022,6 hPa 0,0 mm 0,0 km/h (0 Bft) N 0,00 h 0,0 mm 0,0 UV-I 0 W/m 1,3 C 0,0 km/h (0 Bft)
15.05.2019 23:00 9,8 C 58 % 1022,4 hPa 0,0 mm 0,0 km/h (0 Bft) N 0,00 h 0,0 mm 0,0 UV-I 0 W/m 2,0 C 0,0 km/h (0 Bft)
16.05.2019 00:00 8,6 C 65 % 1022,3 hPa 0,0 mm 0,0 km/h (0 Bft) N 0,00 h 0,0 mm 0,0 UV-I 0 W/m 2,5 C 0,6 km/h (0 Bft)
16.05.2019 01:00 7,5 C 71 % 1021,8 hPa 0,0 mm 0,0 km/h (0 Bft) N 0,00 h 0,0 mm 0,0 UV-I 0 W/m 2,5 C 0,0 km/h (0 Bft)
16.05.2019 02:00 6,5 C 77 % 1021,5 hPa 0,0 mm 0,0 km/h (0 Bft) N 0,00 h 0,0 mm 0,0 UV-I 0 W/m 2,8 C 0,0 km/h (0 Bft)
16.05.2019 03:00 6,2 C 80 % 1020,9 hPa 0,0 mm 0,0 km/h (0 Bft) N 0,00 h 0,0 mm 0,0 UV-I 0 W/m 3,0 C 0,0 km/h (0 Bft)
16.05.2019 04:00 6,5 C 81 % 1020,6 hPa 0,0 mm 0,0 km/h (0 Bft) N 0,00 h 0,0 mm 0,0 UV-I 0 W/m 3,5 C 0,0 km/h (0 Bft)
16.05.2019 05:00 7,0 C 81 % 1020,0 hPa 0,0 mm 0,0 km/h (0 Bft) N 0,00 h 0,0 mm 0,0 UV-I 0 W/m 3,9 C 0,6 km/h (0 Bft)
16.05.2019 06:00 7,3 C 82 % 1019,8 hPa 0,0 mm 0,2 km/h (0 Bft) N 0,42 h 0,0 mm 0,0 UV-I 57 W/m 4,3 C 1,5 km/h (1 Bft)
16.05.2019 07:00 8,2 C 79 % 1019,6 hPa 0,0 mm 0,0 km/h (0 Bft) N 1,00 h 0,0 mm 0,0 UV-I 259 W/m 4,7 C 0,0 km/h (0 Bft)
16.05.2019 08:00 10,1 C 67 % 1019,4 hPa 0,0 mm 0,0 km/h (0 Bft) N 0,75 h 0,1 mm 0,1 UV-I 322 W/m 4,1 C 0,4 km/h (0 Bft)
16.05.2019 09:00 10,8 C 61 % 1019,0 hPa 0,0 mm 0,0 km/h (0 Bft) N 0,58 h 0,1 mm 0,6 UV-I 312 W/m 3,5 C 0,2 km/h (0 Bft)
16.05.2019 10:00 11,9 C 53 % 1018,5 hPa 0,0 mm 0,2 km/h (0 Bft) N 0,50 h 0,1 mm 0,9 UV-I 403 W/m 2,6 C 2,4 km/h (1 Bft)
16.05.2019 11:00 11,6 C 52 % 1018,2 hPa 0,0 mm 0,2 km/h (0 Bft) N 0,17 h 0,2 mm 0,8 UV-I 333 W/m 2,0 C 1,7 km/h (1 Bft)
16.05.2019 12:00 12,4 C 52 % 1017,6 hPa 0,0 mm 0,7 km/h (0 Bft) O 0,75 h 0,2 mm 2,7 UV-I 810 W/m 2,8 C 3,7 km/h (1 Bft)
16.05.2019 13:00 13,8 C 51 % 1016,9 hPa 0,0 mm 0,5 km/h (0 Bft) O 1,00 h 0,4 mm 3,0 UV-I 969 W/m 3,8 C 3,9 km/h (1 Bft)
16.05.2019 14:00 15,6 C 49 % 1016,2 hPa 0,0 mm 0,7 km/h (0 Bft) SO 1,00 h 0,4 mm 2,9 UV-I 962 W/m 5,0 C 4,2 km/h (1 Bft)
16.05.2019 15:00 16,0 C 52 % 1015,3 hPa 0,0 mm 0,7 km/h (0 Bft) O 1,00 h 0,4 mm 1,9 UV-I 670 W/m 6,1 C 4,0 km/h (1 Bft)
16.05.2019 16:00 15,8 C 54 % 1014,6 hPa 0,0 mm 1,0 km/h (0 Bft) O 0,42 h 0,3 mm 0,9 UV-I 479 W/m 6,5 C 4,6 km/h (1 Bft)
16.05.2019 17:00 14,2 C 60 % 1014,3 hPa 0,0 mm 0,8 km/h (0 Bft) O 0,42 h 0,2 mm 0,0 UV-I 275 W/m 6,5 C 3,3 km/h (1 Bft)
16.05.2019 18:00 13,1 C 62 % 1013,9 hPa 0,0 mm 0,3 km/h (0 Bft) N 0,00 h 0,1 mm 0,0 UV-I 166 W/m 6,0 C 2,8 km/h (1 Bft)
16.05.2019 19:00 13,0 C 61 % 1013,3 hPa 0,0 mm 0,2 km/h (0 Bft) N 0,00 h 0,1 mm 0,0 UV-I 84 W/m 5,7 C 2,2 km/h (1 Bft)
16.05.2019 20:00 12,6 C 62 % 1012,9 hPa 0,0 mm 0,1 km/h (0 Bft) N 0,00 h 0,1 mm 0,0 UV-I 31 W/m 5,5 C 2,2 km/h (1 Bft)
16.05.2019 21:00 11,4 C 72 % 1012,6 hPa 0,0 mm 0,1 km/h (0 Bft) N 0,00 h 0,0 mm 0,0 UV-I 4 W/m 6,5 C 2,0 km/h (1 Bft)
16.05.2019 22:00 11,1 C 76 % 1012,6 hPa 0,0 mm 0,8 km/h (0 Bft) O 0,00 h 0,0 mm 0,0 UV-I 0 W/m 7,0 C 3,7 km/h (1 Bft)
16.05.2019 23:00 10,1 C 86 % 1012,3 hPa 0,0 mm 1,5 km/h (1 Bft) O 0,00 h 0,0 mm 0,0 UV-I 0 W/m 7,8 C 6,5 km/h (2 Bft)
17.05.2019 00:00 9,6 C 89 % 1011,7 hPa 0,4 mm 0,7 km/h (0 Bft) O 0,00 h 0,0 mm 0,0 UV-I 0 W/m 7,8 C 3,3 km/h (1 Bft)
17.05.2019 01:00 9,3 C 91 % 1011,0 hPa 0,4 mm 0,0 km/h (0 Bft) N 0,00 h 0,0 mm 0,0 UV-I 0 W/m 7,8 C 0,9 km/h (0 Bft)
17.05.2019 02:00 9,1 C 93 % 1010,3 hPa 0,0 mm 0,3 km/h (0 Bft) S-SW 0,00 h 0,0 mm 0,0 UV-I 0 W/m 8,0 C 2,2 km/h (1 Bft)
17.05.2019 03:00 9,1 C 93 % 1009,7 hPa 0,0 mm 0,3 km/h (0 Bft) N 0,00 h 0,0 mm 0,0 UV-I 0 W/m 8,1 C 3,1 km/h (1 Bft)
17.05.2019 04:00 9,1 C 93 % 1009,2 hPa 0,0 mm 0,7 km/h (0 Bft) S-SW 0,00 h 0,0 mm 0,0 UV-I 0 W/m 8,0 C 3,4 km/h (1 Bft)
17.05.2019 05:00 9,0 C 93 % 1009,0 hPa 0,0 mm 0,2 km/h (0 Bft) N 0,00 h 0,0 mm 0,0 UV-I 5 W/m 7,9 C 2,8 km/h (1 Bft)
17.05.2019 06:00 8,9 C 93 % 1008,7 hPa 0,0 mm 0,3 km/h (0 Bft) S 0,00 h 0,0 mm 0,0 UV-I 25 W/m 7,9 C 2,8 km/h (1 Bft)
17.05.2019 07:00 9,3 C 92 % 1008,6 hPa 0,0 mm 1,1 km/h (1 Bft) S-SW 0,00 h 0,0 mm 0,0 UV-I 43 W/m 7,9 C 6,3 km/h (2 Bft)
17.05.2019 08:00 9,5 C 91 % 1008,6 hPa 0,0 mm 2,3 km/h (1 Bft) S 0,00 h 0,0 mm 0,0 UV-I 85 W/m 8,1 C 8,5 km/h (2 Bft)
17.05.2019 09:00 9,8 C 90 % 1008,3 hPa 0,0 mm 2,5 km/h (1 Bft) S-SO 0,00 h 0,0 mm 0,2 UV-I 109 W/m 8,3 C 8,5 km/h (2 Bft)
17.05.2019 10:00 10,3 C 88 % 1007,9 hPa 0,0 mm 3,0 km/h (1 Bft) O 0,00 h 0,1 mm 0,5 UV-I 145 W/m 8,4 C 9,3 km/h (2 Bft)
17.05.2019 11:00 10,6 C 89 % 1007,5 hPa 0,0 mm 3,1 km/h (1 Bft) S 0,00 h 0,1 mm 0,4 UV-I 141 W/m 8,8 C 9,8 km/h (2 Bft)
17.05.2019 12:00 10,9 C 90 % 1007,3 hPa 0,2 mm 2,4 km/h (1 Bft) S 0,00 h 0,1 mm 0,4 UV-I 131 W/m 9,2 C 8,3 km/h (2 Bft)
17.05.2019 13:00 11,1 C 92 % 1007,3 hPa 0,6 mm 2,0 km/h (1 Bft) S-SW 0,00 h 0,1 mm 0,7 UV-I 177 W/m 9,8 C 8,5 km/h (2 Bft)
17.05.2019 14:00 11,5 C 93 % 1007,0 hPa 0,0 mm 0,4 km/h (0 Bft) O 0,00 h 0,1 mm 0,4 UV-I 124 W/m 10,4 C 3,1 km/h (1 Bft)
17.05.2019 15:00 12,3 C 93 % 1006,8 hPa 0,0 mm 0,5 km/h (0 Bft) O 0,00 h 0,1 mm 0,9 UV-I 214 W/m 11,2 C 3,3 km/h (1 Bft)
17.05.2019 16:00 13,5 C 87 % 1006,4 hPa 0,0 mm 1,0 km/h (0 Bft) O 0,00 h 0,1 mm 0,8 UV-I 279 W/m 11,3 C 5,9 km/h (2 Bft)
17.05.2019 17:00 15,0 C 79 % 1006,0 hPa 0,0 mm 0,5 km/h (0 Bft) O 0,08 h 0,1 mm 0,6 UV-I 287 W/m 11,4 C 2,6 km/h (1 Bft)
17.05.2019 18:00 15,6 C 74 % 1005,5 hPa 0,0 mm 0,3 km/h (0 Bft) O 0,00 h 0,1 mm 0,0 UV-I 105 W/m 11,0 C 1,7 km/h (1 Bft)
17.05.2019 19:00 15,1 C 77 % 1005,4 hPa 0,0 mm 0,3 km/h (0 Bft) N 0,00 h 0,1 mm 0,0 UV-I 50 W/m 11,1 C 2,2 km/h (1 Bft)
17.05.2019 20:00 14,5 C 80 % 1005,4 hPa 0,0 mm 0,1 km/h (0 Bft) N 0,00 h 0,0 mm 0,0 UV-I 17 W/m 11,1 C 1,1 km/h (1 Bft)
17.05.2019 21:00 13,8 C 80 % 1005,7 hPa 0,0 mm 0,1 km/h (0 Bft) N 0,00 h 0,0 mm 0,0 UV-I 0 W/m 10,5 C 0,7 km/h (0 Bft)
17.05.2019 22:00 13,2 C 82 % 1005,8 hPa 0,0 mm 0,0 km/h (0 Bft) N 0,00 h 0,0 mm 0,0 UV-I 0 W/m 10,2 C 0,2 km/h (0 Bft)
17.05.2019 23:00 12,6 C 84 % 1005,7 hPa 0,0 mm 0,0 km/h (0 Bft) N 0,00 h 0,0 mm 0,0 UV-I 0 W/m 10,1 C 0,0 km/h (0 Bft)
18.05.2019 00:00 11,7 C 87 % 1005,5 hPa 0,0 mm 0,0 km/h (0 Bft) N 0,00 h 0,0 mm 0,0 UV-I 0 W/m 9,5 C 0,0 km/h (0 Bft)
18.05.2019 01:00 11,0 C 89 % 1005,5 hPa 0,0 mm 0,1 km/h (0 Bft) N 0,00 h 0,0 mm 0,0 UV-I 0 W/m 9,2 C 0,7 km/h (0 Bft)
18.05.2019 02:00 11,0 C 90 % 1005,4 hPa 0,0 mm 0,3 km/h (0 Bft) NW 0,00 h 0,0 mm 0,0 UV-I 0 W/m 9,5 C 1,8 km/h (1 Bft)
18.05.2019 03:00 11,0 C 89 % 1005,3 hPa 0,0 mm 0,2 km/h (0 Bft) N 0,00 h 0,0 mm 0,0 UV-I 0 W/m 9,3 C 2,0 km/h (1 Bft)
18.05.2019 04:00 10,7 C 89 % 1005,4 hPa 0,0 mm 0,0 km/h (0 Bft) N 0,00 h 0,0 mm 0,0 UV-I 0 W/m 9,0 C 0,4 km/h (0 Bft)
18.05.2019 05:00 10,1 C 91 % 1005,1 hPa 0,0 mm 0,0 km/h (0 Bft) N 0,00 h 0,0 mm 0,0 UV-I 6 W/m 8,8 C 0,7 km/h (0 Bft)
18.05.2019 06:00 10,4 C 93 % 1005,0 hPa 0,0 mm 0,1 km/h (0 Bft) N 0,00 h 0,0 mm 0,0 UV-I 15 W/m 9,3 C 1,1 km/h (1 Bft)
18.05.2019 07:00 10,8 C 91 % 1005,2 hPa 0,0 mm 0,2 km/h (0 Bft) O 0,00 h 0,0 mm 0,4 UV-I 54 W/m 9,4 C 1,8 km/h (1 Bft)
18.05.2019 08:00 11,8 C 90 % 1005,5 hPa 0,0 mm 1,2 km/h (1 Bft) O 0,00 h 0,0 mm 0,9 UV-I 173 W/m 10,2 C 5,2 km/h (1 Bft)
18.05.2019 09:00 14,2 C 84 % 1005,6 hPa 0,0 mm 3,1 km/h (1 Bft) O 0,92 h 0,1 mm 1,6 UV-I 454 W/m 11,4 C 10,4 km/h (2 Bft)
18.05.2019 10:00 15,5 C 77 % 1005,6 hPa 0,0 mm 1,8 km/h (1 Bft) O 0,50 h 0,2 mm 1,6 UV-I 410 W/m 11,6 C 6,5 km/h (2 Bft)
18.05.2019 11:00 17,4 C 69 % 1005,8 hPa 0,0 mm 1,8 km/h (1 Bft) O 0,83 h 0,2 mm 3,2 UV-I 778 W/m 11,6 C 6,5 km/h (2 Bft)
18.05.2019 12:00 18,8 C 65 % 1005,8 hPa 0,0 mm 1,4 km/h (1 Bft) O 1,00 h 0,3 mm 2,5 UV-I 702 W/m 12,0 C 6,9 km/h (2 Bft)
18.05.2019 13:00 20,8 C 56 % 1005,5 hPa 0,0 mm 1,8 km/h (1 Bft) S-SW 1,00 h 0,3 mm 3,2 UV-I 989 W/m 11,6 C 6,7 km/h (2 Bft)
18.05.2019 14:00 22,4 C 49 % 1005,3 hPa 0,0 mm 2,9 km/h (1 Bft) W-SW 1,00 h 0,5 mm 3,1 UV-I 996 W/m 11,2 C 10,4 km/h (2 Bft)
18.05.2019 15:00 23,0 C 44 % 1004,8 hPa 0,0 mm 3,3 km/h (1 Bft) SW 1,00 h 0,5 mm 2,5 UV-I 929 W/m 10,0 C 10,9 km/h (2 Bft)
18.05.2019 16:00 22,7 C 45 % 1004,7 hPa 0,0 mm 5,5 km/h (1 Bft) N 0,92 h 0,5 mm 1,4 UV-I 658 W/m 10,2 C 13,3 km/h (3 Bft)
18.05.2019 17:00 21,4 C 50 % 1004,8 hPa 0,0 mm 2,6 km/h (1 Bft) N-NW 0,33 h 0,4 mm 0,4 UV-I 282 W/m 10,6 C 7,2 km/h (2 Bft)
18.05.2019 18:00 19,1 C 64 % 1004,9 hPa 0,0 mm 0,2 km/h (0 Bft) O 0,00 h 0,2 mm 0,0 UV-I 71 W/m 12,1 C 1,3 km/h (1 Bft)
18.05.2019 19:00 17,3 C 74 % 1005,1 hPa 0,0 mm 3,9 km/h (1 Bft) O 0,00 h 0,1 mm 0,0 UV-I 58 W/m 12,6 C 10,0 km/h (2 Bft)
18.05.2019 20:00 16,4 C 77 % 1005,3 hPa 0,0 mm 0,1 km/h (0 Bft) N 0,25 h 0,1 mm 0,0 UV-I 49 W/m 12,2 C 1,1 km/h (1 Bft)
18.05.2019 21:00 15,8 C 79 % 1005,8 hPa 0,0 mm 1,2 km/h (1 Bft) O 0,17 h 0,0 mm 0,0 UV-I 10 W/m 12,2 C 3,3 km/h (1 Bft)
18.05.2019 22:00 15,4 C 82 % 1006,3 hPa 0,0 mm 0,3 km/h (0 Bft) N 0,00 h 0,0 mm 0,0 UV-I 0 W/m 12,4 C 0,7 km/h (0 Bft)
18.05.2019 23:00 15,3 C 84 % 1006,2 hPa 0,4 mm 0,0 km/h (0 Bft) N 0,00 h 0,0 mm 0,0 UV-I 0 W/m 12,6 C 0,2 km/h (0 Bft)
19.05.2019 00:00 14,3 C 89 % 1005,8 hPa 0,0 mm 0,0 km/h (0 Bft) N 0,00 h 0,0 mm 0,0 UV-I 0 W/m 12,5 C 0,2 km/h (0 Bft)
19.05.2019 01:00 13,9 C 90 % 1005,4 hPa 0,0 mm 3,1 km/h (1 Bft) O 0,00 h 0,0 mm 0,0 UV-I 0 W/m 12,3 C 7,0 km/h (2 Bft)
19.05.2019 02:00 13,5 C 90 % 1005,3 hPa 0,0 mm 0,9 km/h (0 Bft) O 0,00 h 0,0 mm 0,0 UV-I 0 W/m 11,9 C 2,6 km/h (1 Bft)
19.05.2019 03:00 13,1 C 91 % 1005,0 hPa 0,0 mm 0,4 km/h (0 Bft) O 0,00 h 0,0 mm 0,0 UV-I 0 W/m 11,6 C 2,0 km/h (1 Bft)
19.05.2019 04:00 12,7 C 91 % 1004,8 hPa 0,0 mm 0,1 km/h (0 Bft) N 0,00 h 0,0 mm 0,0 UV-I 0 W/m 11,3 C 0,7 km/h (0 Bft)
19.05.2019 05:00 12,2 C 92 % 1004,8 hPa 0,0 mm 0,7 km/h (0 Bft) O 0,00 h 0,0 mm 0,0 UV-I 6 W/m 10,9 C 2,2 km/h (1 Bft)
19.05.2019 06:00 12,1 C 95 % 1004,7 hPa 0,0 mm 2,4 km/h (1 Bft) O 0,00 h 0,0 mm 0,0 UV-I 34 W/m 11,2 C 6,7 km/h (2 Bft)
19.05.2019 07:00 12,8 C 96 % 1004,7 hPa 0,0 mm 1,7 km/h (1 Bft) O 0,00 h 0,0 mm 0,4 UV-I 109 W/m 12,1 C 6,1 km/h (2 Bft)
19.05.2019 08:00 14,3 C 93 % 1004,9 hPa 0,0 mm 0,3 km/h (0 Bft) O 0,00 h 0,1 mm 0,7 UV-I 180 W/m 13,1 C 2,2 km/h (1 Bft)
19.05.2019 09:00 15,4 C 86 % 1005,0 hPa 0,0 mm 1,0 km/h (0 Bft) O 0,42 h 0,1 mm 0,9 UV-I 310 W/m 13,1 C 4,1 km/h (1 Bft)
19.05.2019 10:00 16,7 C 82 % 1004,9 hPa 0,0 mm 1,9 km/h (1 Bft) O 0,83 h 0,1 mm 1,4 UV-I 533 W/m 13,5 C 7,8 km/h (2 Bft)
19.05.2019 11:00 18,5 C 72 % 1004,7 hPa 0,0 mm 1,4 km/h (1 Bft) NW 1,00 h 0,3 mm 2,4 UV-I 794 W/m 13,3 C 6,1 km/h (2 Bft)
19.05.2019 12:00 19,8 C 66 % 1004,4 hPa 0,0 mm 1,2 km/h (1 Bft) N-NW 1,00 h 0,4 mm 2,4 UV-I 758 W/m 13,2 C 6,3 km/h (2 Bft)
19.05.2019 13:00 21,3 C 61 % 1004,1 hPa 0,0 mm 3,3 km/h (1 Bft) N-NW 1,00 h 0,4 mm 2,2 UV-I 724 W/m 13,4 C 10,5 km/h (2 Bft)
19.05.2019 14:00 22,0 C 56 % 1003,9 hPa 0,0 mm 3,8 km/h (1 Bft) N-NW 0,50 h 0,4 mm 1,4 UV-I 473 W/m 12,8 C 10,5 km/h (2 Bft)
19.05.2019 15:00 22,1 C 53 % 1003,9 hPa 0,0 mm 3,4 km/h (1 Bft) N 0,58 h 0,3 mm 1,5 UV-I 576 W/m 11,9 C 9,6 km/h (2 Bft)
19.05.2019 16:00 20,4 C 56 % 1004,4 hPa 0,0 mm 5,1 km/h (1 Bft) O 0,17 h 0,3 mm 0,7 UV-I 233 W/m 11,2 C 12,8 km/h (3 Bft)
19.05.2019 17:00 17,3 C 71 % 1004,6 hPa 0,0 mm 3,0 km/h (1 Bft) O 0,00 h 0,1 mm 0,0 UV-I 30 W/m 11,9 C 10,0 km/h (2 Bft)
19.05.2019 18:00 16,1 C 82 % 1003,9 hPa 0,4 mm 1,0 km/h (0 Bft) O 0,00 h 0,0 mm 0,0 UV-I 129 W/m 12,9 C 3,5 km/h (1 Bft)
19.05.2019 19:00 15,9 C 84 % 1003,9 hPa 0,0 mm 2,4 km/h (1 Bft) O 0,00 h 0,1 mm 0,0 UV-I 75 W/m 13,1 C 6,1 km/h (2 Bft)
19.05.2019 20:00 15,3 C 86 % 1004,3 hPa 0,0 mm 0,0 km/h (0 Bft) N 0,00 h 0,0 mm 0,0 UV-I 19 W/m 13,0 C 0,0 km/h (0 Bft)
19.05.2019 21:00 14,7 C 88 % 1005,0 hPa 0,0 mm 0,0 km/h (0 Bft) N 0,00 h 0,0 mm 0,0 UV-I 5 W/m 12,7 C 0,4 km/h (0 Bft)
19.05.2019 22:00 14,4 C 87 % 1005,6 hPa 0,0 mm 0,3 km/h (0 Bft) O 0,00 h 0,0 mm 0,0 UV-I 0 W/m 12,2 C 2,4 km/h (1 Bft)
19.05.2019 23:00 13,7 C 88 % 1005,7 hPa 0,0 mm 3,2 km/h (1 Bft) O 0,00 h 0,0 mm 0,0 UV-I 0 W/m 11,7 C 6,7 km/h (2 Bft)
Min-Datum _ 15.05.19 13.05.19 19.05.19 - 13.05.19 - - - - - 15.05.19 13.05.19
_ Min-Zeit 06:20 17:50 18:30 - 00:25 - - - - - 12:45 00:25
Minimum _ 3,5 C 25 % 1003,7 hPa - 0,0 km/h (0 Bft) - - - - - -5,0 C 0,0 km/h (0 Bft)
Max-Datum _ 18.05.19 19.05.19 13.05.19 17.05.19 18.05.19 - 13.05.19 18.05.19 13.05.19 14.05.19 19.05.19 18.05.19
_ Max-Zeit 16:00 07:25 09:00 13:10 17:05 - 06:50 15:05 11:05 13:45 11:00 15:55
Maximum _ 23,3 C 96 % 1039,3 hPa 0,6 mm 10,5 km/h
N-NW (2 Bft)
- 0,08 h 0,5 mm 5,1 UV-I 1169 W/m 14,2 C 20,0 km/h
W-SW (4 Bft)
Durchschnitt _ 12,5 C 67 % 1018,6 hPa #2,4 mm 0,8 km/h (0 Bft) O #61:15 h #20,217 mm 1,6 UV-I 400 W/m 5,7 C 3,4 km/h (1 Bft)



© 1998 - 2019 www.pulheimwetter.de